sensor_id;sensor_type;location;lat;lon;timestamp;pressure;altitude;pressure_sealevel;temperature;humidity
66762;BME280;53672;48.176;16.338;2023-05-12T00:04:43;99052.78;;;11.88;92.04
66762;BME280;53672;48.176;16.338;2023-05-12T00:09:44;99063.06;;;11.86;92.36
66762;BME280;53672;48.176;16.338;2023-05-12T00:14:45;99065.72;;;11.91;92.26
66762;BME280;53672;48.176;16.338;2023-05-12T00:19:46;99052.72;;;11.93;92.01
66762;BME280;53672;48.176;16.338;2023-05-12T00:24:46;99050.81;;;11.93;92.02
66762;BME280;53672;48.176;16.338;2023-05-12T00:29:48;99052.50;;;11.89;92.35
66762;BME280;53672;48.176;16.338;2023-05-12T00:34:49;99052.03;;;11.82;92.63
66762;BME280;53672;48.176;16.338;2023-05-12T00:39:49;99053.25;;;11.95;92.31
66762;BME280;53672;48.176;16.338;2023-05-12T00:44:51;99050.81;;;11.93;92.42
66762;BME280;53672;48.176;16.338;2023-05-12T00:49:52;99056.44;;;11.97;92.30
66762;BME280;53672;48.176;16.338;2023-05-12T00:54:52;99065.94;;;11.94;92.53
66762;BME280;53672;48.176;16.338;2023-05-12T00:59:54;99057.38;;;11.87;93.75
66762;BME280;53672;48.176;16.338;2023-05-12T01:04:55;99061.75;;;11.83;94.12
66762;BME280;53672;48.176;16.338;2023-05-12T01:09:56;99062.56;;;11.84;94.37
66762;BME280;53672;48.176;16.338;2023-05-12T01:14:58;99060.59;;;11.89;95.99
66762;BME280;53672;48.176;16.338;2023-05-12T01:20:00;99072.41;;;11.75;99.37
66762;BME280;53672;48.176;16.338;2023-05-12T01:25:03;99075.03;;;11.56;100.00
66762;BME280;53672;48.176;16.338;2023-05-12T01:30:07;99083.25;;;11.46;100.00
66762;BME280;53672;48.176;16.338;2023-05-12T01:35:08;99073.38;;;11.36;100.00
66762;BME280;53672;48.176;16.338;2023-05-12T01:40:09;99088.09;;;11.20;100.00
66762;BME280;53672;48.176;16.338;2023-05-12T01:45:11;99092.81;;;11.09;100.00
66762;BME280;53672;48.176;16.338;2023-05-12T01:50:11;99088.19;;;11.10;100.00
66762;BME280;53672;48.176;16.338;2023-05-12T01:55:12;99086.06;;;11.07;100.00
66762;BME280;53672;48.176;16.338;2023-05-12T02:00:14;99089.63;;;11.02;100.00
66762;BME280;53672;48.176;16.338;2023-05-12T02:05:15;99084.47;;;11.06;100.00
66762;BME280;53672;48.176;16.338;2023-05-12T02:10:16;99089.63;;;11.02;100.00
66762;BME280;53672;48.176;16.338;2023-05-12T02:15:18;99095.81;;;11.03;100.00
66762;BME280;53672;48.176;16.338;2023-05-12T02:20:18;99095.06;;;10.97;100.00
66762;BME280;53672;48.176;16.338;2023-05-12T02:25:19;99098.50;;;11.03;100.00
66762;BME280;53672;48.176;16.338;2023-05-12T02:30:21;99098.84;;;10.96;100.00
66762;BME280;53672;48.176;16.338;2023-05-12T02:35:21;99095.88;;;10.98;100.00
66762;BME280;53672;48.176;16.338;2023-05-12T02:40:22;99096.22;;;10.86;100.00
66762;BME280;53672;48.176;16.338;2023-05-12T02:45:23;99106.25;;;10.81;100.00
66762;BME280;53672;48.176;16.338;2023-05-12T02:50:24;99103.84;;;10.79;100.00
66762;BME280;53672;48.176;16.338;2023-05-12T02:55:25;99108.19;;;10.75;100.00
66762;BME280;53672;48.176;16.338;2023-05-12T03:00:26;99100.38;;;10.74;100.00
66762;BME280;53672;48.176;16.338;2023-05-12T03:05:27;99102.31;;;10.68;100.00
66762;BME280;53672;48.176;16.338;2023-05-12T03:10:28;99114.69;;;10.69;100.00
66762;BME280;53672;48.176;16.338;2023-05-12T03:15:29;99114.75;;;10.64;100.00
66762;BME280;53672;48.176;16.338;2023-05-12T03:20:30;99116.38;;;10.65;100.00
66762;BME280;53672;48.176;16.338;2023-05-12T03:25:30;99121.22;;;10.63;100.00
66762;BME280;53672;48.176;16.338;2023-05-12T03:30:32;99112.56;;;10.66;100.00
66762;BME280;53672;48.176;16.338;2023-05-12T03:35:33;99102.66;;;10.61;100.00
66762;BME280;53672;48.176;16.338;2023-05-12T03:40:33;99104.81;;;10.59;100.00
66762;BME280;53672;48.176;16.338;2023-05-12T03:45:35;99111.00;;;10.60;100.00
66762;BME280;53672;48.176;16.338;2023-05-12T03:50:35;99114.44;;;10.65;100.00
66762;BME280;53672;48.176;16.338;2023-05-12T03:55:36;99113.69;;;10.60;100.00
66762;BME280;53672;48.176;16.338;2023-05-12T04:00:38;99117.78;;;10.52;100.00
66762;BME280;53672;48.176;16.338;2023-05-12T04:05:38;99118.09;;;10.51;100.00
66762;BME280;53672;48.176;16.338;2023-05-12T04:10:39;99120.22;;;10.49;100.00
66762;BME280;53672;48.176;16.338;2023-05-12T04:15:41;99129.63;;;10.51;100.00
66762;BME280;53672;48.176;16.338;2023-05-12T04:20:41;99132.06;;;10.53;100.00
66762;BME280;53672;48.176;16.338;2023-05-12T04:25:42;99137.72;;;10.51;100.00
66762;BME280;53672;48.176;16.338;2023-05-12T04:30:44;99143.69;;;10.48;100.00
66762;BME280;53672;48.176;16.338;2023-05-12T04:35:44;99146.06;;;10.55;100.00
66762;BME280;53672;48.176;16.338;2023-05-12T04:40:45;99155.50;;;10.57;100.00
66762;BME280;53672;48.176;16.338;2023-05-12T04:45:49;99160.94;;;10.47;100.00
66762;BME280;53672;48.176;16.338;2023-05-12T04:50:49;99156.38;;;10.48;100.00
66762;BME280;53672;48.176;16.338;2023-05-12T04:55:50;99162.59;;;10.43;100.00
66762;BME280;53672;48.176;16.338;2023-05-12T05:00:52;99165.03;;;10.40;100.00
66762;BME280;53672;48.176;16.338;2023-05-12T05:05:52;99173.91;;;10.40;100.00
66762;BME280;53672;48.176;16.338;2023-05-12T05:10:53;99163.09;;;10.50;100.00
66762;BME280;53672;48.176;16.338;2023-05-12T05:15:54;99162.84;;;10.47;100.00
66762;BME280;53672;48.176;16.338;2023-05-12T05:20:55;99166.91;;;10.44;100.00
66762;BME280;53672;48.176;16.338;2023-05-12T05:25:55;99164.72;;;10.46;100.00
66762;BME280;53672;48.176;16.338;2023-05-12T05:30:57;99169.28;;;10.46;100.00
66762;BME280;53672;48.176;16.338;2023-05-12T05:35:58;99163.28;;;10.59;100.00
66762;BME280;53672;48.176;16.338;2023-05-12T05:40:58;99165.47;;;10.52;100.00
66762;BME280;53672;48.176;16.338;2023-05-12T05:46:00;99164.41;;;10.53;100.00
66762;BME280;53672;48.176;16.338;2023-05-12T05:51:01;99168.19;;;10.52;100.00
66762;BME280;53672;48.176;16.338;2023-05-12T05:56:02;99168.09;;;10.67;100.00
66762;BME280;53672;48.176;16.338;2023-05-12T06:01:04;99169.16;;;10.66;100.00
66762;BME280;53672;48.176;16.338;2023-05-12T06:06:05;99172.09;;;10.69;100.00
66762;BME280;53672;48.176;16.338;2023-05-12T06:11:05;99187.53;;;10.64;100.00
66762;BME280;53672;48.176;16.338;2023-05-12T06:16:07;99199.38;;;10.63;100.00
66762;BME280;53672;48.176;16.338;2023-05-12T06:21:07;99197.00;;;10.56;100.00
66762;BME280;53672;48.176;16.338;2023-05-12T06:26:08;99199.44;;;10.53;100.00
66762;BME280;53672;48.176;16.338;2023-05-12T06:31:10;99196.75;;;10.53;100.00
66762;BME280;53672;48.176;16.338;2023-05-12T06:36:10;99208.78;;;10.65;100.00
66762;BME280;53672;48.176;16.338;2023-05-12T06:41:11;99204.25;;;10.61;100.00
66762;BME280;53672;48.176;16.338;2023-05-12T06:46:12;99202.13;;;10.58;100.00
66762;BME280;53672;48.176;16.338;2023-05-12T06:51:13;99215.59;;;10.53;100.00
66762;BME280;53672;48.176;16.338;2023-05-12T06:56:13;99208.84;;;10.60;100.00
66762;BME280;53672;48.176;16.338;2023-05-12T07:01:15;99210.69;;;10.65;100.00
66762;BME280;53672;48.176;16.338;2023-05-12T07:06:16;99212.03;;;10.62;100.00
66762;BME280;53672;48.176;16.338;2023-05-12T07:11:16;99211.47;;;10.71;100.00
66762;BME280;53672;48.176;16.338;2023-05-12T07:16:18;99220.13;;;10.67;100.00
66762;BME280;53672;48.176;16.338;2023-05-12T07:21:19;99211.41;;;10.76;100.00
66762;BME280;53672;48.176;16.338;2023-05-12T07:26:19;99202.75;;;10.84;100.00
66762;BME280;53672;48.176;16.338;2023-05-12T07:31:21;99202.44;;;10.90;100.00
66762;BME280;53672;48.176;16.338;2023-05-12T07:36:22;99211.91;;;10.83;100.00
66762;BME280;53672;48.176;16.338;2023-05-12T07:41:22;99215.72;;;10.82;100.00
66762;BME280;53672;48.176;16.338;2023-05-12T07:46:24;99207.97;;;10.70;100.00
66762;BME280;53672;48.176;16.338;2023-05-12T07:51:24;99214.16;;;10.71;100.00
66762;BME280;53672;48.176;16.338;2023-05-12T07:56:25;99219.75;;;10.79;100.00
66762;BME280;53672;48.176;16.338;2023-05-12T08:01:27;99227.31;;;10.77;100.00
66762;BME280;53672;48.176;16.338;2023-05-12T08:06:27;99236.47;;;10.81;100.00
66762;BME280;53672;48.176;16.338;2023-05-12T08:11:28;99234.28;;;10.83;100.00
66762;BME280;53672;48.176;16.338;2023-05-12T08:16:29;99246.44;;;10.81;100.00
66762;BME280;53672;48.176;16.338;2023-05-12T08:21:30;99238.31;;;10.86;100.00
66762;BME280;53672;48.176;16.338;2023-05-12T08:26:30;99245.56;;;10.90;100.00
66762;BME280;53672;48.176;16.338;2023-05-12T08:31:32;99238.06;;;10.87;100.00
66762;BME280;53672;48.176;16.338;2023-05-12T08:36:33;99239.09;;;10.91;100.00
66762;BME280;53672;48.176;16.338;2023-05-12T08:41:41;99247.16;;;10.96;100.00
66762;BME280;53672;48.176;16.338;2023-05-12T08:46:43;99240.84;;;11.11;100.00
66762;BME280;53672;48.176;16.338;2023-05-12T08:51:46;99233.41;;;10.98;100.00
66762;BME280;53672;48.176;16.338;2023-05-12T08:56:47;99235.09;;;10.84;100.00
66762;BME280;53672;48.176;16.338;2023-05-12T09:01:52;99238.69;;;10.74;100.00
66762;BME280;53672;48.176;16.338;2023-05-12T09:06:53;99256.78;;;10.63;100.00
66762;BME280;53672;48.176;16.338;2023-05-12T09:11:55;99271.59;;;10.66;100.00
66762;BME280;53672;48.176;16.338;2023-05-12T09:17:02;99278.91;;;10.55;100.00
66762;BME280;53672;48.176;16.338;2023-05-12T09:22:03;99280.78;;;10.60;100.00
66762;BME280;53672;48.176;16.338;2023-05-12T09:27:04;99287.84;;;10.51;100.00
66762;BME280;53672;48.176;16.338;2023-05-12T09:32:06;99293.66;;;10.78;100.00
66762;BME280;53672;48.176;16.338;2023-05-12T09:37:06;99275.78;;;10.92;100.00
66762;BME280;53672;48.176;16.338;2023-05-12T09:42:09;99285.69;;;11.02;100.00
66762;BME280;53672;48.176;16.338;2023-05-12T09:47:11;99287.84;;;11.00;100.00
66762;BME280;53672;48.176;16.338;2023-05-12T09:52:12;99290.41;;;10.81;100.00
66762;BME280;53672;48.176;16.338;2023-05-12T09:57:14;99281.56;;;10.65;100.00
66762;BME280;53672;48.176;16.338;2023-05-12T10:02:17;99285.91;;;10.61;100.00
66762;BME280;53672;48.176;16.338;2023-05-12T10:07:21;99294.56;;;10.53;100.00
66762;BME280;53672;48.176;16.338;2023-05-12T10:12:22;99285.72;;;10.48;100.00
66762;BME280;53672;48.176;16.338;2023-05-12T10:17:24;99292.69;;;10.49;100.00
66762;BME280;53672;48.176;16.338;2023-05-12T10:22:27;99279.25;;;10.44;100.00
66762;BME280;53672;48.176;16.338;2023-05-12T10:27:28;99285.72;;;10.48;100.00
66762;BME280;53672;48.176;16.338;2023-05-12T10:32:32;99283.75;;;10.63;100.00
66762;BME280;53672;48.176;16.338;2023-05-12T10:37:34;99286.19;;;10.65;100.00
66762;BME280;53672;48.176;16.338;2023-05-12T10:42:38;99286.97;;;10.65;100.00
66762;BME280;53672;48.176;16.338;2023-05-12T10:47:41;99290.44;;;10.71;100.00
66762;BME280;53672;48.176;16.338;2023-05-12T10:52:52;99298.78;;;10.75;100.00
66762;BME280;53672;48.176;16.338;2023-05-12T10:57:52;99286.91;;;10.76;100.00
66762;BME280;53672;48.176;16.338;2023-05-12T11:02:54;99291.25;;;10.72;100.00
66762;BME280;53672;48.176;16.338;2023-05-12T11:07:54;99291.00;;;10.68;100.00
66762;BME280;53672;48.176;16.338;2023-05-12T11:12:55;99290.75;;;10.64;100.00
66762;BME280;53672;48.176;16.338;2023-05-12T11:18:01;99286.69;;;10.62;100.00
66762;BME280;53672;48.176;16.338;2023-05-12T11:23:01;99287.22;;;10.69;100.00
66762;BME280;53672;48.176;16.338;2023-05-12T11:28:03;99295.28;;;10.69;100.00
66762;BME280;53672;48.176;16.338;2023-05-12T11:33:05;99292.84;;;10.78;100.00
66762;BME280;53672;48.176;16.338;2023-05-12T11:38:13;99299.81;;;10.84;100.00
66762;BME280;53672;48.176;16.338;2023-05-12T11:43:19;99314.63;;;10.86;100.00
66762;BME280;53672;48.176;16.338;2023-05-12T11:48:21;99315.16;;;10.88;100.00
66762;BME280;53672;48.176;16.338;2023-05-12T11:53:31;99316.81;;;10.79;100.00
66762;BME280;53672;48.176;16.338;2023-05-12T11:58:31;99320.09;;;10.71;100.00
66762;BME280;53672;48.176;16.338;2023-05-12T12:03:43;99336.84;;;10.63;100.00
66762;BME280;53672;48.176;16.338;2023-05-12T12:08:51;99337.09;;;10.66;100.00
66762;BME280;53672;48.176;16.338;2023-05-12T12:13:53;99340.09;;;10.60;100.00
66762;BME280;53672;48.176;16.338;2023-05-12T12:18:56;99339.09;;;10.41;100.00
66762;BME280;53672;48.176;16.338;2023-05-12T12:23:57;99347.16;;;10.41;100.00
66762;BME280;53672;48.176;16.338;2023-05-12T12:28:57;99349.84;;;10.51;100.00
66762;BME280;53672;48.176;16.338;2023-05-12T12:33:59;99349.28;;;10.49;100.00
66762;BME280;53672;48.176;16.338;2023-05-12T12:39:00;99361.16;;;10.48;100.00
66762;BME280;53672;48.176;16.338;2023-05-12T12:44:00;99357.66;;;10.47;100.00
66762;BME280;53672;48.176;16.338;2023-05-12T12:49:02;99356.28;;;10.45;100.00
66762;BME280;53672;48.176;16.338;2023-05-12T12:54:03;99351.75;;;10.40;100.00
66762;BME280;53672;48.176;16.338;2023-05-12T12:59:03;99365.50;;;10.34;100.00
66762;BME280;53672;48.176;16.338;2023-05-12T13:04:05;99354.19;;;10.32;100.00
66762;BME280;53672;48.176;16.338;2023-05-12T13:09:05;99352.84;;;10.29;100.00
66762;BME280;53672;48.176;16.338;2023-05-12T13:14:06;99345.59;;;10.20;100.00
66762;BME280;53672;48.176;16.338;2023-05-12T13:19:08;99348.78;;;10.11;100.00
66762;BME280;53672;48.176;16.338;2023-05-12T13:24:08;99347.47;;;10.19;100.00
66762;BME280;53672;48.176;16.338;2023-05-12T13:29:09;99342.34;;;10.23;100.00
66762;BME280;53672;48.176;16.338;2023-05-12T13:34:11;99347.47;;;10.19;100.00
66762;BME280;53672;48.176;16.338;2023-05-12T13:39:11;99360.41;;;10.22;100.00
66762;BME280;53672;48.176;16.338;2023-05-12T13:44:12;99352.31;;;10.22;100.00
66762;BME280;53672;48.176;16.338;2023-05-12T13:49:13;99352.34;;;10.17;100.00
66762;BME280;53672;48.176;16.338;2023-05-12T13:54:14;99360.69;;;10.15;100.00
66762;BME280;53672;48.176;16.338;2023-05-12T13:59:14;99357.72;;;10.17;100.00
66762;BME280;53672;48.176;16.338;2023-05-12T14:04:16;99353.66;;;10.14;100.00
66762;BME280;53672;48.176;16.338;2023-05-12T14:09:17;99345.03;;;10.23;100.00
66762;BME280;53672;48.176;16.338;2023-05-12T14:14:17;99351.25;;;10.23;100.00
66762;BME280;53672;48.176;16.338;2023-05-12T14:19:19;99344.50;;;10.31;100.00
66762;BME280;53672;48.176;16.338;2023-05-12T14:24:19;99344.75;;;10.34;100.00
66762;BME280;53672;48.176;16.338;2023-05-12T14:29:20;99351.75;;;10.35;100.00
66762;BME280;53672;48.176;16.338;2023-05-12T14:34:22;99352.56;;;10.36;100.00
66762;BME280;53672;48.176;16.338;2023-05-12T14:39:22;99361.19;;;10.33;100.00
66762;BME280;53672;48.176;16.338;2023-05-12T14:44:23;99362.78;;;10.39;100.00
66762;BME280;53672;48.176;16.338;2023-05-12T14:49:24;99356.56;;;10.53;100.00
66762;BME280;53672;48.176;16.338;2023-05-12T14:54:25;99357.63;;;10.52;100.00
66762;BME280;53672;48.176;16.338;2023-05-12T14:59:27;99364.91;;;10.57;100.00
66762;BME280;53672;48.176;16.338;2023-05-12T15:04:29;99352.75;;;10.59;100.00
66762;BME280;53672;48.176;16.338;2023-05-12T15:09:30;99347.31;;;10.75;100.00
66762;BME280;53672;48.176;16.338;2023-05-12T15:14:30;99345.69;;;10.79;100.00
66762;BME280;53672;48.176;16.338;2023-05-12T15:19:32;99348.66;;;10.77;100.00
66762;BME280;53672;48.176;16.338;2023-05-12T15:24:33;99345.69;;;10.74;100.00
66762;BME280;53672;48.176;16.338;2023-05-12T15:29:36;99343.25;;;10.77;100.00
66762;BME280;53672;48.176;16.338;2023-05-12T15:34:38;99351.66;;;10.71;100.00
66762;BME280;53672;48.176;16.338;2023-05-12T15:39:39;99336.75;;;10.88;100.00
66762;BME280;53672;48.176;16.338;2023-05-12T15:44:39;99346.22;;;10.81;100.00
66762;BME280;53672;48.176;16.338;2023-05-12T15:49:41;99341.59;;;10.86;100.00
66762;BME280;53672;48.176;16.338;2023-05-12T15:54:41;99345.13;;;10.82;100.00
66762;BME280;53672;48.176;16.338;2023-05-12T15:59:42;99339.75;;;10.77;100.00
66762;BME280;53672;48.176;16.338;2023-05-12T16:04:44;99340.56;;;10.77;100.00
66762;BME280;53672;48.176;16.338;2023-05-12T16:09:44;99343.56;;;10.71;100.00
66762;BME280;53672;48.176;16.338;2023-05-12T16:14:45;99353.00;;;10.63;100.00
66762;BME280;53672;48.176;16.338;2023-05-12T16:19:47;99358.69;;;10.56;100.00
66762;BME280;53672;48.176;16.338;2023-05-12T16:24:47;99360.03;;;10.59;100.00
66762;BME280;53672;48.176;16.338;2023-05-12T16:29:47;99368.44;;;10.42;100.00
66762;BME280;53672;48.176;16.338;2023-05-12T16:34:49;99366.28;;;10.39;100.00
66762;BME280;53672;48.176;16.338;2023-05-12T16:39:50;99376.81;;;10.21;100.00
66762;BME280;53672;48.176;16.338;2023-05-12T16:44:51;99385.72;;;10.21;100.00
66762;BME280;53672;48.176;16.338;2023-05-12T16:49:53;99387.59;;;10.21;100.00
66762;BME280;53672;48.176;16.338;2023-05-12T16:54:54;99383.28;;;9.99;100.00
66762;BME280;53672;48.176;16.338;2023-05-12T16:59:55;99383.84;;;10.16;100.00
66762;BME280;53672;48.176;16.338;2023-05-12T17:04:56;99379.78;;;10.09;100.00
66762;BME280;53672;48.176;16.338;2023-05-12T17:09:57;99383.81;;;10.11;100.00
66762;BME280;53672;48.176;16.338;2023-05-12T17:14:57;99380.34;;;10.16;100.00
66762;BME280;53672;48.176;16.338;2023-05-12T17:19:59;99394.56;;;10.11;100.00
66762;BME280;53672;48.176;16.338;2023-05-12T17:25:00;99388.66;;;10.09;100.00
66762;BME280;53672;48.176;16.338;2023-05-12T17:30:00;99399.16;;;10.11;100.00
66762;BME280;53672;48.176;16.338;2023-05-12T17:35:02;99395.13;;;10.08;100.00
66762;BME280;53672;48.176;16.338;2023-05-12T17:40:03;99393.53;;;10.17;100.00
66762;BME280;53672;48.176;16.338;2023-05-12T17:45:05;99402.13;;;10.09;100.00
66762;BME280;53672;48.176;16.338;2023-05-12T17:50:08;99394.06;;;10.09;100.00
66762;BME280;53672;48.176;16.338;2023-05-12T17:55:09;99400.78;;;10.07;100.00
66762;BME280;53672;48.176;16.338;2023-05-12T18:00:11;99402.13;;;10.04;100.00
66762;BME280;53672;48.176;16.338;2023-05-12T18:05:13;99404.53;;;10.01;100.00
66762;BME280;53672;48.176;16.338;2023-05-12T18:10:13;99401.59;;;10.02;100.00
66762;BME280;53672;48.176;16.338;2023-05-12T18:15:14;99406.69;;;10.04;100.00
66762;BME280;53672;48.176;16.338;2023-05-12T18:20:16;99395.41;;;10.02;100.00
66762;BME280;53672;48.176;16.338;2023-05-12T18:25:16;99415.03;;;10.07;100.00
66762;BME280;53672;48.176;16.338;2023-05-12T18:30:17;99414.53;;;10.05;100.00
66762;BME280;53672;48.176;16.338;2023-05-12T18:35:19;99414.81;;;10.19;100.00
66762;BME280;53672;48.176;16.338;2023-05-12T18:40:19;99412.09;;;10.14;100.00
66762;BME280;53672;48.176;16.338;2023-05-12T18:45:20;99426.63;;;10.08;100.00
66762;BME280;53672;48.176;16.338;2023-05-12T18:50:21;99430.69;;;10.21;100.00
66762;BME280;53672;48.176;16.338;2023-05-12T18:55:22;99428.53;;;10.17;100.00
66762;BME280;53672;48.176;16.338;2023-05-12T19:00:23;99428.50;;;10.07;100.00
66762;BME280;53672;48.176;16.338;2023-05-12T19:05:24;99440.09;;;10.13;100.00
66762;BME280;53672;48.176;16.338;2023-05-12T19:10:25;99435.00;;;10.06;100.00
66762;BME280;53672;48.176;16.338;2023-05-12T19:15:26;99441.44;;;10.00;100.00
66762;BME280;53672;48.176;16.338;2023-05-12T19:20:29;99447.09;;;9.94;100.00
66762;BME280;53672;48.176;16.338;2023-05-12T19:25:29;99451.16;;;9.96;100.00
66762;BME280;53672;48.176;16.338;2023-05-12T19:30:30;99460.28;;;9.90;100.00
66762;BME280;53672;48.176;16.338;2023-05-12T19:35:32;99458.13;;;9.97;100.00
66762;BME280;53672;48.176;16.338;2023-05-12T19:40:33;99458.94;;;9.88;100.00
66762;BME280;53672;48.176;16.338;2023-05-12T19:45:33;99463.50;;;9.87;100.00
66762;BME280;53672;48.176;16.338;2023-05-12T19:50:35;99475.59;;;9.75;100.00
66762;BME280;53672;48.176;16.338;2023-05-12T19:55:36;99478.00;;;9.71;100.00
66762;BME280;53672;48.176;16.338;2023-05-12T20:00:36;99481.25;;;9.68;100.00
66762;BME280;53672;48.176;16.338;2023-05-12T20:05:38;99478.00;;;9.66;100.00
66762;BME280;53672;48.176;16.338;2023-05-12T20:10:39;99476.94;;;9.72;100.00
66762;BME280;53672;48.176;16.338;2023-05-12T20:15:39;99471.84;;;9.76;100.00
66762;BME280;53672;48.176;16.338;2023-05-12T20:20:41;99474.25;;;9.77;100.00
66762;BME280;53672;48.176;16.338;2023-05-12T20:25:42;99468.88;;;9.72;100.00
66762;BME280;53672;48.176;16.338;2023-05-12T20:30:43;99475.34;;;9.81;100.00
66762;BME280;53672;48.176;16.338;2023-05-12T20:35:44;99467.53;;;9.75;100.00
66762;BME280;53672;48.176;16.338;2023-05-12T20:40:45;99473.69;;;9.70;100.00
66762;BME280;53672;48.176;16.338;2023-05-12T20:45:45;99464.31;;;9.78;100.00
66762;BME280;53672;48.176;16.338;2023-05-12T20:50:47;99467.50;;;9.69;100.00
66762;BME280;53672;48.176;16.338;2023-05-12T20:55:48;99467.22;;;9.66;100.00
66762;BME280;53672;48.176;16.338;2023-05-12T21:00:48;99475.84;;;9.73;100.00
66762;BME280;53672;48.176;16.338;2023-05-12T21:05:50;99469.13;;;9.71;100.00
66762;BME280;53672;48.176;16.338;2023-05-12T21:10:51;99479.38;;;9.68;100.00
66762;BME280;53672;48.176;16.338;2023-05-12T21:15:51;99468.88;;;9.72;100.00
66762;BME280;53672;48.176;16.338;2023-05-12T21:20:53;99467.25;;;9.71;100.00
66762;BME280;53672;48.176;16.338;2023-05-12T21:25:53;99461.88;;;9.71;100.00
66762;BME280;53672;48.176;16.338;2023-05-12T21:30:54;99461.09;;;9.76;100.00
66762;BME280;53672;48.176;16.338;2023-05-12T21:35:56;99471.28;;;9.74;100.00
66762;BME280;53672;48.176;16.338;2023-05-12T21:40:56;99471.84;;;9.76;100.00
66762;BME280;53672;48.176;16.338;2023-05-12T21:46:00;99468.09;;;9.82;100.00
66762;BME280;53672;48.176;16.338;2023-05-12T21:51:02;99469.94;;;9.71;100.00
66762;BME280;53672;48.176;16.338;2023-05-12T21:56:03;99469.69;;;9.78;100.00
66762;BME280;53672;48.176;16.338;2023-05-12T22:01:04;99470.50;;;9.78;100.00
66762;BME280;53672;48.176;16.338;2023-05-12T22:06:06;99471.28;;;9.68;100.00
66762;BME280;53672;48.176;16.338;2023-05-12T22:11:06;99470.75;;;9.72;100.00
66762;BME280;53672;48.176;16.338;2023-05-12T22:16:07;99474.22;;;9.67;100.00
66762;BME280;53672;48.176;16.338;2023-05-12T22:21:09;99469.91;;;9.66;100.00
66762;BME280;53672;48.176;16.338;2023-05-12T22:26:09;99476.94;;;9.72;100.00
66762;BME280;53672;48.176;16.338;2023-05-12T22:31:10;99475.31;;;9.71;100.00
66762;BME280;53672;48.176;16.338;2023-05-12T22:36:11;99470.44;;;9.63;100.00
66762;BME280;53672;48.176;16.338;2023-05-12T22:41:12;99474.78;;;9.64;100.00
66762;BME280;53672;48.176;16.338;2023-05-12T22:46:12;99473.72;;;9.65;100.00
66762;BME280;53672;48.176;16.338;2023-05-12T22:51:14;99467.22;;;9.61;100.00
66762;BME280;53672;48.176;16.338;2023-05-12T22:56:15;99470.75;;;9.72;100.00
66762;BME280;53672;48.176;16.338;2023-05-12T23:01:15;99464.03;;;9.69;100.00
66762;BME280;53672;48.176;16.338;2023-05-12T23:06:17;99462.94;;;9.65;100.00
66762;BME280;53672;48.176;16.338;2023-05-12T23:11:17;99458.13;;;9.72;100.00
66762;BME280;53672;48.176;16.338;2023-05-12T23:16:18;99464.81;;;9.69;100.00
66762;BME280;53672;48.176;16.338;2023-05-12T23:21:20;99465.63;;;9.70;100.00
66762;BME280;53672;48.176;16.338;2023-05-12T23:26:20;99461.59;;;9.67;100.00
66762;BME280;53672;48.176;16.338;2023-05-12T23:31:21;99470.19;;;9.69;100.00
66762;BME280;53672;48.176;16.338;2023-05-12T23:36:22;99464.00;;;9.64;100.00
66762;BME280;53672;48.176;16.338;2023-05-12T23:41:23;99465.06;;;9.63;100.00
66762;BME280;53672;48.176;16.338;2023-05-12T23:46:24;99460.53;;;9.68;100.00
66762;BME280;53672;48.176;16.338;2023-05-12T23:51:26;99449.75;;;9.58;100.00
66762;BME280;53672;48.176;16.338;2023-05-12T23:56:26;99453.47;;;9.52;100.00
